sensor_id;sensor_type;location;lat;lon;timestamp;pressure;altitude;pressure_sealevel;temperature;humidity
60715;BME280;46564;53.096;8.246;2023-01-27T00:04:16;102346.75;;;3.02;nan
60715;BME280;46564;53.096;8.246;2023-01-27T00:09:18;102354.63;;;3.04;nan
60715;BME280;46564;53.096;8.246;2023-01-27T00:14:20;102347.97;;;3.07;nan
60715;BME280;46564;53.096;8.246;2023-01-27T00:19:21;102342.00;;;3.08;nan
60715;BME280;46564;53.096;8.246;2023-01-27T00:24:23;102345.28;;;3.06;nan
60715;BME280;46564;53.096;8.246;2023-01-27T00:29:40;102347.88;;;3.06;nan
60715;BME280;46564;53.096;8.246;2023-01-27T00:34:41;102347.19;;;3.08;nan
60715;BME280;46564;53.096;8.246;2023-01-27T00:39:43;102352.47;;;3.10;nan
60715;BME280;46564;53.096;8.246;2023-01-27T00:44:45;102351.44;;;3.08;nan
60715;BME280;46564;53.096;8.246;2023-01-27T00:50:07;102356.88;;;3.11;nan
60715;BME280;46564;53.096;8.246;2023-01-27T00:55:09;102362.06;;;3.11;nan
60715;BME280;46564;53.096;8.246;2023-01-27T01:00:17;102350.09;;;3.13;nan
60715;BME280;46564;53.096;8.246;2023-01-27T01:05:19;102366.41;;;3.12;nan
60715;BME280;46564;53.096;8.246;2023-01-27T01:10:21;102369.00;;;3.12;nan
60715;BME280;46564;53.096;8.246;2023-01-27T01:15:22;102377.81;;;3.14;nan
60715;BME280;46564;53.096;8.246;2023-01-27T01:20:24;102381.41;;;3.16;nan
60715;BME280;46564;53.096;8.246;2023-01-27T01:25:26;102381.50;;;3.17;nan
60715;BME280;46564;53.096;8.246;2023-01-27T01:30:29;102388.59;;;3.20;nan
60715;BME280;46564;53.096;8.246;2023-01-27T01:35:31;102388.38;;;3.17;nan
60715;BME280;46564;53.096;8.246;2023-01-27T01:40:32;102391.97;;;3.19;nan
60715;BME280;46564;53.096;8.246;2023-01-27T01:50:51;102394.56;;;3.19;nan
60715;BME280;46564;53.096;8.246;2023-01-27T01:55:56;102389.50;;;3.21;nan
60715;BME280;46564;53.096;8.246;2023-01-27T02:00:59;102394.78;;;3.22;nan
60715;BME280;46564;53.096;8.246;2023-01-27T02:06:01;102394.66;;;3.21;nan
60715;BME280;46564;53.096;8.246;2023-01-27T02:11:03;102386.13;;;3.22;nan
60715;BME280;46564;53.096;8.246;2023-01-27T02:16:05;102392.19;;;3.22;nan
60715;BME280;46564;53.096;8.246;2023-01-27T02:21:08;102390.72;;;3.26;nan
60715;BME280;46564;53.096;8.246;2023-01-27T02:26:22;102390.59;;;3.24;nan
60715;BME280;46564;53.096;8.246;2023-01-27T02:31:25;102394.22;;;3.26;nan
60715;BME280;46564;53.096;8.246;2023-01-27T02:36:30;102408.06;;;3.27;nan
60715;BME280;46564;53.096;8.246;2023-01-27T02:41:36;102408.06;;;3.27;nan
60715;BME280;46564;53.096;8.246;2023-01-27T02:46:41;102400.72;;;3.21;nan
60715;BME280;46564;53.096;8.246;2023-01-27T02:51:42;102409.09;;;3.17;nan
60715;BME280;46564;53.096;8.246;2023-01-27T02:56:44;102411.91;;;3.08;nan
60715;BME280;46564;53.096;8.246;2023-01-27T03:01:49;102421.00;;;3.03;nan
60715;BME280;46564;53.096;8.246;2023-01-27T03:06:50;102418.88;;;2.97;nan
60715;BME280;46564;53.096;8.246;2023-01-27T03:11:53;102417.63;;;2.92;nan
60715;BME280;46564;53.096;8.246;2023-01-27T03:17:13;102416.28;;;2.86;nan
60715;BME280;46564;53.096;8.246;2023-01-27T03:22:33;102421.00;;;2.79;nan
60715;BME280;46564;53.096;8.246;2023-01-27T03:27:35;102424.13;;;2.75;nan
60715;BME280;46564;53.096;8.246;2023-01-27T03:33:12;102429.97;;;2.73;nan
60715;BME280;46564;53.096;8.246;2023-01-27T03:38:32;102427.69;;;2.65;nan
60715;BME280;46564;53.096;8.246;2023-01-27T03:43:52;102439.41;;;2.60;nan
60715;BME280;46564;53.096;8.246;2023-01-27T03:49:13;102448.13;;;2.51;nan
60715;BME280;46564;53.096;8.246;2023-01-27T03:54:14;102441.81;;;2.47;nan
60715;BME280;46564;53.096;8.246;2023-01-27T03:59:16;102453.53;;;2.42;nan
60715;BME280;46564;53.096;8.246;2023-01-27T04:04:18;102461.03;;;2.39;nan
60715;BME280;46564;53.096;8.246;2023-01-27T04:09:38;102462.13;;;2.30;nan
60715;BME280;46564;53.096;8.246;2023-01-27T04:14:41;102454.78;;;2.25;nan
60715;BME280;46564;53.096;8.246;2023-01-27T04:19:43;102459.72;;;2.22;nan
60715;BME280;46564;53.096;8.246;2023-01-27T04:24:45;102463.09;;;2.21;nan
60715;BME280;46564;53.096;8.246;2023-01-27T04:29:47;102465.97;;;2.14;nan
60715;BME280;46564;53.096;8.246;2023-01-27T04:34:48;102478.78;;;2.12;nan
60715;BME280;46564;53.096;8.246;2023-01-27T04:39:50;102463.28;;;2.12;nan
60715;BME280;46564;53.096;8.246;2023-01-27T04:44:52;102474.50;;;2.12;nan
60715;BME280;46564;53.096;8.246;2023-01-27T04:49:53;102471.16;;;2.14;nan
60715;BME280;46564;53.096;8.246;2023-01-27T04:54:55;102478.53;;;2.09;nan
60715;BME280;46564;53.096;8.246;2023-01-27T04:59:57;102481.91;;;2.08;nan
60715;BME280;46564;53.096;8.246;2023-01-27T05:04:58;102488.88;;;2.09;nan
60715;BME280;46564;53.096;8.246;2023-01-27T05:10:20;102492.25;;;2.08;nan
60715;BME280;46564;53.096;8.246;2023-01-27T05:15:22;102493.13;;;2.08;nan
60715;BME280;46564;53.096;8.246;2023-01-27T05:20:25;102497.66;;;2.11;nan
60715;BME280;46564;53.096;8.246;2023-01-27T05:25:26;102496.75;;;2.10;nan
60715;BME280;46564;53.096;8.246;2023-01-27T05:30:28;102504.38;;;2.09;nan
60715;BME280;46564;53.096;8.246;2023-01-27T05:35:34;102508.75;;;2.10;nan
60715;BME280;46564;53.096;8.246;2023-01-27T05:40:36;102520.78;;;2.09;nan
60715;BME280;46564;53.096;8.246;2023-01-27T05:45:37;102507.75;;;2.08;nan
60715;BME280;46564;53.096;8.246;2023-01-27T05:50:39;102519.53;;;2.04;nan
60715;BME280;46564;53.096;8.246;2023-01-27T05:55:42;102525.22;;;2.00;nan
60715;BME280;46564;53.096;8.246;2023-01-27T06:00:44;102517.34;;;1.99;nan
60715;BME280;46564;53.096;8.246;2023-01-27T06:05:56;102507.19;;;1.90;nan
60715;BME280;46564;53.096;8.246;2023-01-27T06:10:58;102521.31;;;1.83;nan
60715;BME280;46564;53.096;8.246;2023-01-27T06:16:01;102514.09;;;1.79;nan
60715;BME280;46564;53.096;8.246;2023-01-27T06:21:05;102544.84;;;1.76;nan
60715;BME280;46564;53.096;8.246;2023-01-27T06:26:12;102540.81;;;1.80;nan
60715;BME280;46564;53.096;8.246;2023-01-27T06:31:16;102557.72;;;1.86;nan
60715;BME280;46564;53.096;8.246;2023-01-27T06:36:20;102562.19;;;1.89;nan
60715;BME280;46564;53.096;8.246;2023-01-27T06:41:22;102551.22;;;1.91;nan
60715;BME280;46564;53.096;8.246;2023-01-27T06:46:25;102554.06;;;1.94;nan
60715;BME280;46564;53.096;8.246;2023-01-27T06:51:26;102567.34;;;1.99;nan
60715;BME280;46564;53.096;8.246;2023-01-27T06:56:28;102554.66;;;2.02;nan
60715;BME280;46564;53.096;8.246;2023-01-27T07:01:30;102570.16;;;2.02;nan
60715;BME280;46564;53.096;8.246;2023-01-27T07:06:31;102585.03;;;2.05;nan
60715;BME280;46564;53.096;8.246;2023-01-27T07:11:33;102599.19;;;2.10;nan
60715;BME280;46564;53.096;8.246;2023-01-27T07:16:35;102605.94;;;2.08;nan
60715;BME280;46564;53.096;8.246;2023-01-27T07:21:37;102612.13;;;2.10;nan
60715;BME280;46564;53.096;8.246;2023-01-27T07:26:39;102608.53;;;2.08;nan
60715;BME280;46564;53.096;8.246;2023-01-27T07:31:43;102613.06;;;2.10;nan
60715;BME280;46564;53.096;8.246;2023-01-27T07:36:45;102628.81;;;2.14;nan
60715;BME280;46564;53.096;8.246;2023-01-27T07:41:47;102633.97;;;2.14;nan
60715;BME280;46564;53.096;8.246;2023-01-27T07:46:49;102633.28;;;2.16;nan
60715;BME280;46564;53.096;8.246;2023-01-27T07:51:51;102630.84;;;2.18;nan
60715;BME280;46564;53.096;8.246;2023-01-27T07:56:52;102634.72;;;2.23;nan
60715;BME280;46564;53.096;8.246;2023-01-27T08:01:54;102641.81;;;2.25;nan
60715;BME280;46564;53.096;8.246;2023-01-27T08:06:56;102641.00;;;2.26;nan
60715;BME280;46564;53.096;8.246;2023-01-27T08:11:58;102654.06;;;2.28;nan
60715;BME280;46564;53.096;8.246;2023-01-27T08:17:00;102646.88;;;2.24;nan
60715;BME280;46564;53.096;8.246;2023-01-27T08:22:02;102645.41;;;2.27;nan
60715;BME280;46564;53.096;8.246;2023-01-27T08:27:03;102650.84;;;2.30;nan
60715;BME280;46564;53.096;8.246;2023-01-27T08:32:09;102662.19;;;2.33;nan
60715;BME280;46564;53.096;8.246;2023-01-27T08:37:11;102662.84;;;2.40;nan
60715;BME280;46564;53.096;8.246;2023-01-27T08:42:12;102656.09;;;2.42;nan
60715;BME280;46564;53.096;8.246;2023-01-27T08:47:14;102659.81;;;2.46;nan
60715;BME280;46564;53.096;8.246;2023-01-27T08:52:16;102668.97;;;2.53;nan
60715;BME280;46564;53.096;8.246;2023-01-27T08:57:17;102672.81;;;2.58;nan
60715;BME280;46564;53.096;8.246;2023-01-27T09:02:19;102665.31;;;2.61;nan
60715;BME280;46564;53.096;8.246;2023-01-27T09:07:22;102683.66;;;2.64;nan
60715;BME280;46564;53.096;8.246;2023-01-27T09:12:24;102691.66;;;2.67;nan
60715;BME280;46564;53.096;8.246;2023-01-27T09:17:26;102685.31;;;2.74;nan
60715;BME280;46564;53.096;8.246;2023-01-27T09:22:28;102699.13;;;2.74;nan
60715;BME280;46564;53.096;8.246;2023-01-27T09:27:29;102691.78;;;2.69;nan
60715;BME280;46564;53.096;8.246;2023-01-27T09:32:40;102697.63;;;2.66;nan
60715;BME280;46564;53.096;8.246;2023-01-27T09:37:54;102708.88;;;2.67;nan
60715;BME280;46564;53.096;8.246;2023-01-27T10:09:59;102704.06;;;2.71;nan
60715;BME280;46564;53.096;8.246;2023-01-27T10:15:28;102708.22;;;2.69;nan
60715;BME280;46564;53.096;8.246;2023-01-27T10:21:02;102702.38;;;2.72;nan
60715;BME280;46564;53.096;8.246;2023-01-27T10:26:33;102699.78;;;2.72;nan
60715;BME280;46564;53.096;8.246;2023-01-27T10:31:43;102698.97;;;2.83;nan
60715;BME280;46564;53.096;8.246;2023-01-27T10:42:09;102708.16;;;3.01;nan
60715;BME280;46564;53.096;8.246;2023-01-27T10:47:31;102700.41;;;3.01;nan
60715;BME280;46564;53.096;8.246;2023-01-27T10:57:59;102705.28;;;3.09;nan
60715;BME280;46564;53.096;8.246;2023-01-27T11:03:20;102709.69;;;3.10;nan
60715;BME280;46564;53.096;8.246;2023-01-27T11:08:32;102705.03;;;3.06;nan
60715;BME280;46564;53.096;8.246;2023-01-27T11:13:34;102707.75;;;3.07;nan
60715;BME280;46564;53.096;8.246;2023-01-27T11:18:37;102703.72;;;3.11;nan
60715;BME280;46564;53.096;8.246;2023-01-27T11:23:41;102702.56;;;3.07;nan
60715;BME280;46564;53.096;8.246;2023-01-27T11:29:01;102702.56;;;3.07;nan
60715;BME280;46564;53.096;8.246;2023-01-27T11:39:40;102694.44;;;2.80;nan
60715;BME280;46564;53.096;8.246;2023-01-27T11:44:43;102698.31;;;2.86;nan
60715;BME280;46564;53.096;8.246;2023-01-27T11:49:47;102682.84;;;2.97;nan
60715;BME280;46564;53.096;8.246;2023-01-27T11:54:52;102681.38;;;3.01;nan
60715;BME280;46564;53.096;8.246;2023-01-27T12:00:00;102684.34;;;3.06;nan
60715;BME280;46564;53.096;8.246;2023-01-27T12:05:11;102686.09;;;3.17;nan
60715;BME280;46564;53.096;8.246;2023-01-27T12:15:25;102678.63;;;2.88;nan
60715;BME280;46564;53.096;8.246;2023-01-27T12:20:37;102673.56;;;2.89;nan
60715;BME280;46564;53.096;8.246;2023-01-27T12:25:43;102678.25;;;2.83;nan
60715;BME280;46564;53.096;8.246;2023-01-27T12:30:50;102672.56;;;2.87;nan
60715;BME280;46564;53.096;8.246;2023-01-27T12:35:57;102669.44;;;2.91;nan
60715;BME280;46564;53.096;8.246;2023-01-27T12:41:06;102666.44;;;2.87;nan
60715;BME280;46564;53.096;8.246;2023-01-27T12:51:21;102674.53;;;2.79;nan
60715;BME280;46564;53.096;8.246;2023-01-27T12:56:23;102670.03;;;2.77;nan
60715;BME280;46564;53.096;8.246;2023-01-27T13:01:34;102668.09;;;2.74;nan
60715;BME280;46564;53.096;8.246;2023-01-27T13:06:45;102666.66;;;2.78;nan
60715;BME280;46564;53.096;8.246;2023-01-27T13:11:48;102669.53;;;2.71;nan
60715;BME280;46564;53.096;8.246;2023-01-27T13:16:55;102660.09;;;2.71;nan
60715;BME280;46564;53.096;8.246;2023-01-27T13:21:59;102667.31;;;2.75;nan
60715;BME280;46564;53.096;8.246;2023-01-27T13:27:08;102675.13;;;2.65;nan
60715;BME280;46564;53.096;8.246;2023-01-27T13:32:22;102675.38;;;2.68;nan
60715;BME280;46564;53.096;8.246;2023-01-27T13:37:42;102673.53;;;2.67;nan
60715;BME280;46564;53.096;8.246;2023-01-27T13:42:58;102676.00;;;2.65;nan
60715;BME280;46564;53.096;8.246;2023-01-27T13:53:15;102676.13;;;2.67;nan
60715;BME280;46564;53.096;8.246;2023-01-27T13:58:42;102681.06;;;2.64;nan
60715;BME280;46564;53.096;8.246;2023-01-27T14:04:10;102676.81;;;2.64;nan
60715;BME280;46564;53.096;8.246;2023-01-27T14:14:35;102684.56;;;2.64;nan
60715;BME280;46564;53.096;8.246;2023-01-27T14:25:19;102673.31;;;2.64;nan
60715;BME280;46564;53.096;8.246;2023-01-27T14:30:28;102681.19;;;2.65;nan
60715;BME280;46564;53.096;8.246;2023-01-27T14:41:13;102676.00;;;2.65;nan
60715;BME280;46564;53.096;8.246;2023-01-27T14:46:43;102670.56;;;2.73;nan
60715;BME280;46564;53.096;8.246;2023-01-27T14:51:53;102685.06;;;2.71;nan
60715;BME280;46564;53.096;8.246;2023-01-27T14:57:15;102684.81;;;2.68;nan
60715;BME280;46564;53.096;8.246;2023-01-27T15:02:43;102685.34;;;2.63;nan
60715;BME280;46564;53.096;8.246;2023-01-27T15:18:05;102684.63;;;2.54;nan
60715;BME280;46564;53.096;8.246;2023-01-27T15:28:39;102691.75;;;2.46;nan
60715;BME280;46564;53.096;8.246;2023-01-27T15:34:14;102700.94;;;2.43;nan
60715;BME280;46564;53.096;8.246;2023-01-27T15:39:19;102695.28;;;2.37;nan
60715;BME280;46564;53.096;8.246;2023-01-27T15:44:30;102706.25;;;2.34;nan
60715;BME280;46564;53.096;8.246;2023-01-27T15:49:42;102709.53;;;2.32;nan
60715;BME280;46564;53.096;8.246;2023-01-27T15:54:49;102712.00;;;2.30;nan
60715;BME280;46564;53.096;8.246;2023-01-27T15:59:54;102712.63;;;2.27;nan
60715;BME280;46564;53.096;8.246;2023-01-27T16:05:07;102726.75;;;2.21;nan
60715;BME280;46564;53.096;8.246;2023-01-27T16:10:19;102719.50;;;2.17;nan
60715;BME280;46564;53.096;8.246;2023-01-27T16:15:31;102726.63;;;2.19;nan
60715;BME280;46564;53.096;8.246;2023-01-27T16:20:43;102731.00;;;2.10;nan
60715;BME280;46564;53.096;8.246;2023-01-27T16:26:06;102736.19;;;2.00;nan
60715;BME280;46564;53.096;8.246;2023-01-27T16:31:15;102741.34;;;2.00;nan
60715;BME280;46564;53.096;8.246;2023-01-27T16:36:22;102747.84;;;1.94;nan
60715;BME280;46564;53.096;8.246;2023-01-27T16:41:28;102754.06;;;1.86;nan
60715;BME280;46564;53.096;8.246;2023-01-27T16:46:39;102756.88;;;1.79;nan
60715;BME280;46564;53.096;8.246;2023-01-27T16:51:42;102762.06;;;1.79;nan
60715;BME280;46564;53.096;8.246;2023-01-27T16:56:47;102764.50;;;1.77;nan
60715;BME280;46564;53.096;8.246;2023-01-27T17:01:56;102767.97;;;1.68;nan
60715;BME280;46564;53.096;8.246;2023-01-27T17:07:06;102768.66;;;1.65;nan
60715;BME280;46564;53.096;8.246;2023-01-27T17:12:37;102768.75;;;1.56;nan
60715;BME280;46564;53.096;8.246;2023-01-27T17:17:40;102781.94;;;1.59;nan
60715;BME280;46564;53.096;8.246;2023-01-27T17:22:45;102789.19;;;1.64;nan
60715;BME280;46564;53.096;8.246;2023-01-27T17:27:53;102787.72;;;1.57;nan
60715;BME280;46564;53.096;8.246;2023-01-27T17:32:58;102796.09;;;1.54;nan
60715;BME280;46564;53.096;8.246;2023-01-27T17:38:20;102812.25;;;1.41;nan
60715;BME280;46564;53.096;8.246;2023-01-27T17:43:32;102814.44;;;1.37;nan
60715;BME280;46564;53.096;8.246;2023-01-27T17:48:37;102816.47;;;1.31;nan
60715;BME280;46564;53.096;8.246;2023-01-27T17:53:41;102813.09;;;1.32;nan
60715;BME280;46564;53.096;8.246;2023-01-27T17:58:44;102815.56;;;1.30;nan
60715;BME280;46564;53.096;8.246;2023-01-27T18:03:49;102812.06;;;1.30;nan
60715;BME280;46564;53.096;8.246;2023-01-27T18:08:56;102813.63;;;1.28;nan
60715;BME280;46564;53.096;8.246;2023-01-27T18:14:07;102819.81;;;1.30;nan
60715;BME280;46564;53.096;8.246;2023-01-27T18:19:20;102809.84;;;1.24;nan
60715;BME280;46564;53.096;8.246;2023-01-27T18:24:22;102810.00;;;1.26;nan
60715;BME280;46564;53.096;8.246;2023-01-27T18:29:30;102819.03;;;1.20;nan
60715;BME280;46564;53.096;8.246;2023-01-27T18:34:44;102810.63;;;1.23;nan
60715;BME280;46564;53.096;8.246;2023-01-27T18:39:47;102816.97;;;1.27;nan
60715;BME280;46564;53.096;8.246;2023-01-27T18:44:49;102829.88;;;1.27;nan
60715;BME280;46564;53.096;8.246;2023-01-27T18:55:05;102822.91;;;1.26;nan
60715;BME280;46564;53.096;8.246;2023-01-27T19:00:09;102842.03;;;1.28;nan
60715;BME280;46564;53.096;8.246;2023-01-27T19:05:27;102844.72;;;1.29;nan
60715;BME280;46564;53.096;8.246;2023-01-27T19:10:32;102843.28;;;1.22;nan
60715;BME280;46564;53.096;8.246;2023-01-27T19:15:40;102837.94;;;1.11;nan
60715;BME280;46564;53.096;8.246;2023-01-27T19:20:45;102838.81;;;1.01;nan
60715;BME280;46564;53.096;8.246;2023-01-27T19:25:50;102840.19;;;0.97;nan
60715;BME280;46564;53.096;8.246;2023-01-27T19:30:52;102841.63;;;0.94;nan
60715;BME280;46564;53.096;8.246;2023-01-27T19:35:55;102848.06;;;0.99;nan
60715;BME280;46564;53.096;8.246;2023-01-27T19:40:58;102851.16;;;0.95;nan
60715;BME280;46564;53.096;8.246;2023-01-27T19:46:00;102857.22;;;0.95;nan
60715;BME280;46564;53.096;8.246;2023-01-27T19:51:02;102859.25;;;0.89;nan
60715;BME280;46564;53.096;8.246;2023-01-27T19:56:13;102869.56;;;0.89;nan
60715;BME280;46564;53.096;8.246;2023-01-27T20:01:18;102862.72;;;0.90;nan
60715;BME280;46564;53.096;8.246;2023-01-27T20:06:23;102862.59;;;0.88;nan
60715;BME280;46564;53.096;8.246;2023-01-27T20:11:31;102859.13;;;0.87;nan
60715;BME280;46564;53.096;8.246;2023-01-27T20:16:33;102857.91;;;0.84;nan
60715;BME280;46564;53.096;8.246;2023-01-27T20:21:35;102856.88;;;0.82;nan
60715;BME280;46564;53.096;8.246;2023-01-27T20:26:36;102853.41;;;0.81;nan
60715;BME280;46564;53.096;8.246;2023-01-27T20:31:38;102838.84;;;0.82;nan
60715;BME280;46564;53.096;8.246;2023-01-27T20:36:40;102842.03;;;0.79;nan
60715;BME280;46564;53.096;8.246;2023-01-27T20:41:41;102831.31;;;0.75;nan
60715;BME280;46564;53.096;8.246;2023-01-27T20:46:43;102824.19;;;0.72;nan
60715;BME280;46564;53.096;8.246;2023-01-27T20:51:45;102821.34;;;0.69;nan
60715;BME280;46564;53.096;8.246;2023-01-27T20:56:46;102829.31;;;0.62;nan
60715;BME280;46564;53.096;8.246;2023-01-27T21:01:48;102818.75;;;0.59;nan
60715;BME280;46564;53.096;8.246;2023-01-27T21:06:49;102830.91;;;0.51;nan
60715;BME280;46564;53.096;8.246;2023-01-27T21:11:51;102822.75;;;0.46;nan
60715;BME280;46564;53.096;8.246;2023-01-27T21:16:53;102829.13;;;0.50;nan
60715;BME280;46564;53.096;8.246;2023-01-27T21:21:54;102834.88;;;0.47;nan
60715;BME280;46564;53.096;8.246;2023-01-27T21:26:56;102830.22;;;0.43;nan
60715;BME280;46564;53.096;8.246;2023-01-27T21:31:58;102832.03;;;0.44;nan
60715;BME280;46564;53.096;8.246;2023-01-27T21:36:59;102833.59;;;0.42;nan
60715;BME280;46564;53.096;8.246;2023-01-27T21:42:01;102837.41;;;0.37;nan
60715;BME280;46564;53.096;8.246;2023-01-27T21:47:04;102819.22;;;0.35;nan
60715;BME280;46564;53.096;8.246;2023-01-27T21:52:06;102831.06;;;0.33;nan
60715;BME280;46564;53.096;8.246;2023-01-27T21:57:08;102819.81;;;0.33;nan
60715;BME280;46564;53.096;8.246;2023-01-27T22:02:14;102832.09;;;0.35;nan
60715;BME280;46564;53.096;8.246;2023-01-27T22:07:17;102817.13;;;0.31;nan
60715;BME280;46564;53.096;8.246;2023-01-27T22:12:19;102815.59;;;0.33;nan
60715;BME280;46564;53.096;8.246;2023-01-27T22:17:22;102824.09;;;0.32;nan
60715;BME280;46564;53.096;8.246;2023-01-27T22:22:24;102822.41;;;0.33;nan
60715;BME280;46564;53.096;8.246;2023-01-27T22:27:26;102814.69;;;0.33;nan
60715;BME280;46564;53.096;8.246;2023-01-27T22:32:27;102821.09;;;0.28;nan
60715;BME280;46564;53.096;8.246;2023-01-27T22:37:29;102817.97;;;0.22;nan
60715;BME280;46564;53.096;8.246;2023-01-27T22:42:31;102826.91;;;0.16;nan
60715;BME280;46564;53.096;8.246;2023-01-27T22:47:32;102822.41;;;0.14;nan
60715;BME280;46564;53.096;8.246;2023-01-27T22:52:35;102820.13;;;0.17;nan
60715;BME280;46564;53.096;8.246;2023-01-27T22:57:37;102819.19;;;0.16;nan
60715;BME280;46564;53.096;8.246;2023-01-27T23:02:39;102818.16;;;0.14;nan
60715;BME280;46564;53.096;8.246;2023-01-27T23:07:40;102816.34;;;0.13;nan
60715;BME280;46564;53.096;8.246;2023-01-27T23:12:42;102823.31;;;0.14;nan
60715;BME280;46564;53.096;8.246;2023-01-27T23:17:44;102826.09;;;0.07;nan
60715;BME280;46564;53.096;8.246;2023-01-27T23:22:47;102828.03;;;0.10;nan
60715;BME280;46564;53.096;8.246;2023-01-27T23:27:49;102832.59;;;0.12;nan
60715;BME280;46564;53.096;8.246;2023-01-27T23:32:51;102817.13;;;0.12;nan
60715;BME280;46564;53.096;8.246;2023-01-27T23:37:55;102821.50;;;0.13;nan
60715;BME280;46564;53.096;8.246;2023-01-27T23:42:58;102816.06;;;0.10;nan
60715;BME280;46564;53.096;8.246;2023-01-27T23:48:01;102817.59;;;0.08;nan
60715;BME280;46564;53.096;8.246;2023-01-27T23:53:04;102811.56;;;0.08;nan
60715;BME280;46564;53.096;8.246;2023-01-27T23:58:07;102827.75;;;0.07;nan
